sensor_id;sensor_type;location;lat;lon;timestamp;P1;durP1;ratioP1;P2;durP2;ratioP2
31526;SDS011;18136;42.236;-73.040;2023-06-14T00:01:18;3.65;;;3.35;;
31526;SDS011;18136;42.236;-73.040;2023-06-14T00:03:45;3.75;;;3.45;;
31526;SDS011;18136;42.236;-73.040;2023-06-14T00:06:12;3.70;;;3.40;;
31526;SDS011;18136;42.236;-73.040;2023-06-14T00:08:38;4.30;;;3.97;;
31526;SDS011;18136;42.236;-73.040;2023-06-14T00:11:06;3.58;;;3.28;;
31526;SDS011;18136;42.236;-73.040;2023-06-14T00:13:33;5.13;;;3.78;;
31526;SDS011;18136;42.236;-73.040;2023-06-14T00:15:59;4.15;;;3.60;;
31526;SDS011;18136;42.236;-73.040;2023-06-14T00:18:25;4.55;;;3.65;;
31526;SDS011;18136;42.236;-73.040;2023-06-14T00:20:54;4.68;;;3.75;;
31526;SDS011;18136;42.236;-73.040;2023-06-14T00:23:21;3.60;;;3.30;;
31526;SDS011;18136;42.236;-73.040;2023-06-14T00:25:47;5.35;;;3.78;;
31526;SDS011;18136;42.236;-73.040;2023-06-14T00:28:14;4.65;;;3.70;;
31526;SDS011;18136;42.236;-73.040;2023-06-14T00:30:40;4.60;;;3.90;;
31526;SDS011;18136;42.236;-73.040;2023-06-14T00:33:09;4.05;;;3.65;;
31526;SDS011;18136;42.236;-73.040;2023-06-14T00:35:35;5.18;;;3.90;;
31526;SDS011;18136;42.236;-73.040;2023-06-14T00:38:01;4.82;;;3.72;;
31526;SDS011;18136;42.236;-73.040;2023-06-14T00:40:27;5.30;;;4.03;;
31526;SDS011;18136;42.236;-73.040;2023-06-14T00:42:55;4.15;;;3.50;;
31526;SDS011;18136;42.236;-73.040;2023-06-14T00:45:22;5.45;;;4.20;;
31526;SDS011;18136;42.236;-73.040;2023-06-14T00:47:48;3.80;;;3.50;;
31526;SDS011;18136;42.236;-73.040;2023-06-14T00:50:18;3.88;;;3.58;;
31526;SDS011;18136;42.236;-73.040;2023-06-14T00:52:47;8.13;;;3.55;;
31526;SDS011;18136;42.236;-73.040;2023-06-14T00:55:14;4.95;;;3.65;;
31526;SDS011;18136;42.236;-73.040;2023-06-14T00:57:41;4.43;;;4.03;;
31526;SDS011;18136;42.236;-73.040;2023-06-14T01:00:07;4.78;;;4.07;;
31526;SDS011;18136;42.236;-73.040;2023-06-14T01:02:36;7.72;;;3.90;;
31526;SDS011;18136;42.236;-73.040;2023-06-14T01:05:02;6.00;;;3.60;;
31526;SDS011;18136;42.236;-73.040;2023-06-14T01:13:28;5.90;;;4.15;;
31526;SDS011;18136;42.236;-73.040;2023-06-14T01:16:04;3.78;;;3.47;;
31526;SDS011;18136;42.236;-73.040;2023-06-14T01:18:33;4.00;;;3.63;;
31526;SDS011;18136;42.236;-73.040;2023-06-14T01:21:00;3.90;;;3.60;;
31526;SDS011;18136;42.236;-73.040;2023-06-14T01:23:31;3.70;;;3.40;;
31526;SDS011;18136;42.236;-73.040;2023-06-14T01:25:58;4.90;;;4.10;;
31526;SDS011;18136;42.236;-73.040;2023-06-14T01:28:26;4.95;;;3.70;;
31526;SDS011;18136;42.236;-73.040;2023-06-14T01:30:58;4.70;;;4.30;;
31526;SDS011;18136;42.236;-73.040;2023-06-14T01:33:29;5.05;;;3.90;;
31526;SDS011;18136;42.236;-73.040;2023-06-14T01:35:57;4.63;;;3.85;;
31526;SDS011;18136;42.236;-73.040;2023-06-14T01:38:25;5.70;;;3.97;;
31526;SDS011;18136;42.236;-73.040;2023-06-14T01:40:52;9.68;;;4.10;;
31526;SDS011;18136;42.236;-73.040;2023-06-14T01:43:20;4.25;;;3.85;;
31526;SDS011;18136;42.236;-73.040;2023-06-14T01:45:48;5.07;;;3.90;;
31526;SDS011;18136;42.236;-73.040;2023-06-14T01:48:16;9.88;;;4.25;;
31526;SDS011;18136;42.236;-73.040;2023-06-14T01:50:42;4.53;;;3.92;;
31526;SDS011;18136;42.236;-73.040;2023-06-14T01:53:09;4.28;;;3.97;;
31526;SDS011;18136;42.236;-73.040;2023-06-14T01:55:37;5.03;;;3.80;;
31526;SDS011;18136;42.236;-73.040;2023-06-14T01:58:03;7.32;;;4.43;;
31526;SDS011;18136;42.236;-73.040;2023-06-14T02:00:30;4.28;;;3.83;;
31526;SDS011;18136;42.236;-73.040;2023-06-14T02:02:56;4.35;;;3.92;;
31526;SDS011;18136;42.236;-73.040;2023-06-14T02:05:23;4.47;;;3.92;;
31526;SDS011;18136;42.236;-73.040;2023-06-14T02:07:51;4.40;;;4.00;;
31526;SDS011;18136;42.236;-73.040;2023-06-14T02:10:20;5.00;;;3.67;;
31526;SDS011;18136;42.236;-73.040;2023-06-14T02:12:46;4.60;;;4.18;;
31526;SDS011;18136;42.236;-73.040;2023-06-14T02:15:13;5.10;;;4.05;;
31526;SDS011;18136;42.236;-73.040;2023-06-14T02:17:45;4.30;;;3.90;;
31526;SDS011;18136;42.236;-73.040;2023-06-14T02:20:12;6.20;;;4.40;;
31526;SDS011;18136;42.236;-73.040;2023-06-14T02:22:38;6.07;;;3.97;;
31526;SDS011;18136;42.236;-73.040;2023-06-14T02:25:05;5.28;;;4.13;;
31526;SDS011;18136;42.236;-73.040;2023-06-14T02:27:31;6.40;;;4.10;;
31526;SDS011;18136;42.236;-73.040;2023-06-14T02:29:57;5.65;;;4.28;;
31526;SDS011;18136;42.236;-73.040;2023-06-14T02:32:23;4.05;;;3.75;;
31526;SDS011;18136;42.236;-73.040;2023-06-14T02:34:51;4.65;;;4.15;;
31526;SDS011;18136;42.236;-73.040;2023-06-14T02:37:18;4.63;;;4.22;;
31526;SDS011;18136;42.236;-73.040;2023-06-14T02:39:44;4.72;;;3.90;;
31526;SDS011;18136;42.236;-73.040;2023-06-14T02:42:10;4.32;;;3.90;;
31526;SDS011;18136;42.236;-73.040;2023-06-14T02:44:37;6.20;;;4.88;;
31526;SDS011;18136;42.236;-73.040;2023-06-14T02:47:03;4.40;;;3.80;;
31526;SDS011;18136;42.236;-73.040;2023-06-14T02:49:30;4.57;;;4.15;;
31526;SDS011;18136;42.236;-73.040;2023-06-14T02:51:56;5.32;;;4.45;;
31526;SDS011;18136;42.236;-73.040;2023-06-14T02:54:22;4.63;;;3.92;;
31526;SDS011;18136;42.236;-73.040;2023-06-14T02:56:48;8.75;;;4.07;;
31526;SDS011;18136;42.236;-73.040;2023-06-14T02:59:15;4.70;;;4.30;;
31526;SDS011;18136;42.236;-73.040;2023-06-14T03:01:42;4.32;;;3.92;;
31526;SDS011;18136;42.236;-73.040;2023-06-14T03:04:08;6.88;;;4.00;;
31526;SDS011;18136;42.236;-73.040;2023-06-14T03:06:34;4.72;;;4.03;;
31526;SDS011;18136;42.236;-73.040;2023-06-14T03:09:01;5.28;;;4.88;;
31526;SDS011;18136;42.236;-73.040;2023-06-14T03:11:31;5.63;;;4.22;;
31526;SDS011;18136;42.236;-73.040;2023-06-14T03:13:57;5.80;;;4.32;;
31526;SDS011;18136;42.236;-73.040;2023-06-14T03:16:24;6.43;;;4.40;;
31526;SDS011;18136;42.236;-73.040;2023-06-14T03:18:50;4.72;;;4.32;;
31526;SDS011;18136;42.236;-73.040;2023-06-14T03:21:17;4.80;;;4.30;;
31526;SDS011;18136;42.236;-73.040;2023-06-14T03:23:45;11.80;;;5.40;;
31526;SDS011;18136;42.236;-73.040;2023-06-14T03:26:12;4.50;;;3.75;;
31526;SDS011;18136;42.236;-73.040;2023-06-14T03:28:46;5.05;;;4.22;;
31526;SDS011;18136;42.236;-73.040;2023-06-14T03:31:13;9.68;;;4.30;;
31526;SDS011;18136;42.236;-73.040;2023-06-14T03:33:40;6.22;;;4.43;;
31526;SDS011;18136;42.236;-73.040;2023-06-14T03:36:06;7.35;;;4.68;;
31526;SDS011;18136;42.236;-73.040;2023-06-14T03:38:32;4.50;;;4.10;;
31526;SDS011;18136;42.236;-73.040;2023-06-14T03:40:58;5.03;;;4.55;;
31526;SDS011;18136;42.236;-73.040;2023-06-14T03:43:25;5.13;;;4.68;;
31526;SDS011;18136;42.236;-73.040;2023-06-14T03:45:51;5.00;;;4.20;;
31526;SDS011;18136;42.236;-73.040;2023-06-14T03:48:17;5.38;;;4.72;;
31526;SDS011;18136;42.236;-73.040;2023-06-14T03:50:43;4.78;;;4.25;;
31526;SDS011;18136;42.236;-73.040;2023-06-14T03:53:10;7.53;;;4.35;;
31526;SDS011;18136;42.236;-73.040;2023-06-14T03:55:36;4.32;;;3.90;;
31526;SDS011;18136;42.236;-73.040;2023-06-14T03:58:03;5.18;;;4.68;;
31526;SDS011;18136;42.236;-73.040;2023-06-14T04:00:29;5.55;;;5.00;;
31526;SDS011;18136;42.236;-73.040;2023-06-14T04:02:55;8.02;;;4.88;;
31526;SDS011;18136;42.236;-73.040;2023-06-14T04:05:21;5.22;;;4.72;;
31526;SDS011;18136;42.236;-73.040;2023-06-14T04:07:51;5.40;;;4.82;;
31526;SDS011;18136;42.236;-73.040;2023-06-14T04:10:21;5.45;;;4.95;;
31526;SDS011;18136;42.236;-73.040;2023-06-14T04:12:47;8.90;;;5.15;;
31526;SDS011;18136;42.236;-73.040;2023-06-14T04:15:13;6.25;;;4.57;;
31526;SDS011;18136;42.236;-73.040;2023-06-14T04:17:40;6.20;;;5.35;;
31526;SDS011;18136;42.236;-73.040;2023-06-14T04:20:06;10.93;;;4.40;;
31526;SDS011;18136;42.236;-73.040;2023-06-14T04:22:34;7.28;;;5.18;;
31526;SDS011;18136;42.236;-73.040;2023-06-14T04:25:01;6.43;;;4.15;;
31526;SDS011;18136;42.236;-73.040;2023-06-14T04:27:28;4.97;;;4.50;;
31526;SDS011;18136;42.236;-73.040;2023-06-14T04:29:56;5.25;;;4.75;;
31526;SDS011;18136;42.236;-73.040;2023-06-14T04:32:23;6.25;;;4.35;;
31526;SDS011;18136;42.236;-73.040;2023-06-14T04:34:54;4.95;;;4.30;;
31526;SDS011;18136;42.236;-73.040;2023-06-14T04:37:21;6.18;;;4.90;;
31526;SDS011;18136;42.236;-73.040;2023-06-14T04:39:48;5.75;;;4.97;;
31526;SDS011;18136;42.236;-73.040;2023-06-14T04:42:15;7.50;;;4.82;;
31526;SDS011;18136;42.236;-73.040;2023-06-14T04:44:42;5.05;;;4.57;;
31526;SDS011;18136;42.236;-73.040;2023-06-14T04:47:12;4.97;;;4.47;;
31526;SDS011;18136;42.236;-73.040;2023-06-14T04:49:39;6.80;;;4.90;;
31526;SDS011;18136;42.236;-73.040;2023-06-14T04:52:06;5.82;;;5.10;;
31526;SDS011;18136;42.236;-73.040;2023-06-14T04:54:35;5.60;;;5.07;;
31526;SDS011;18136;42.236;-73.040;2023-06-14T04:57:07;5.15;;;4.65;;
31526;SDS011;18136;42.236;-73.040;2023-06-14T04:59:42;7.45;;;4.78;;
31526;SDS011;18136;42.236;-73.040;2023-06-14T05:02:09;5.40;;;4.90;;
31526;SDS011;18136;42.236;-73.040;2023-06-14T05:04:36;6.65;;;4.57;;
31526;SDS011;18136;42.236;-73.040;2023-06-14T05:07:08;5.88;;;4.65;;
31526;SDS011;18136;42.236;-73.040;2023-06-14T05:09:35;5.18;;;4.55;;
31526;SDS011;18136;42.236;-73.040;2023-06-14T05:12:02;7.28;;;5.10;;
31526;SDS011;18136;42.236;-73.040;2023-06-14T05:14:28;7.72;;;4.82;;
31526;SDS011;18136;42.236;-73.040;2023-06-14T05:16:54;7.00;;;5.38;;
31526;SDS011;18136;42.236;-73.040;2023-06-14T05:19:20;6.68;;;5.10;;
31526;SDS011;18136;42.236;-73.040;2023-06-14T05:21:47;6.88;;;4.50;;
31526;SDS011;18136;42.236;-73.040;2023-06-14T05:24:13;6.20;;;5.15;;
31526;SDS011;18136;42.236;-73.040;2023-06-14T05:26:40;5.40;;;4.63;;
31526;SDS011;18136;42.236;-73.040;2023-06-14T05:29:06;6.10;;;5.60;;
31526;SDS011;18136;42.236;-73.040;2023-06-14T05:31:32;5.63;;;4.90;;
31526;SDS011;18136;42.236;-73.040;2023-06-14T05:33:58;5.68;;;5.13;;
31526;SDS011;18136;42.236;-73.040;2023-06-14T05:36:24;5.57;;;4.80;;
31526;SDS011;18136;42.236;-73.040;2023-06-14T05:38:53;7.05;;;5.22;;
31526;SDS011;18136;42.236;-73.040;2023-06-14T05:41:28;6.07;;;5.15;;
31526;SDS011;18136;42.236;-73.040;2023-06-14T05:43:54;6.30;;;4.57;;
31526;SDS011;18136;42.236;-73.040;2023-06-14T05:46:21;8.15;;;5.20;;
31526;SDS011;18136;42.236;-73.040;2023-06-14T05:48:52;6.40;;;5.82;;
31526;SDS011;18136;42.236;-73.040;2023-06-14T05:51:19;8.13;;;5.38;;
31526;SDS011;18136;42.236;-73.040;2023-06-14T05:53:45;7.47;;;4.95;;
31526;SDS011;18136;42.236;-73.040;2023-06-14T05:56:12;5.20;;;4.80;;
31526;SDS011;18136;42.236;-73.040;2023-06-14T05:58:39;5.70;;;5.20;;
31526;SDS011;18136;42.236;-73.040;2023-06-14T06:01:05;6.55;;;4.80;;
31526;SDS011;18136;42.236;-73.040;2023-06-14T06:03:31;6.13;;;5.05;;
31526;SDS011;18136;42.236;-73.040;2023-06-14T06:05:58;6.32;;;5.72;;
31526;SDS011;18136;42.236;-73.040;2023-06-14T06:08:24;5.45;;;4.93;;
31526;SDS011;18136;42.236;-73.040;2023-06-14T06:10:51;5.00;;;4.60;;
31526;SDS011;18136;42.236;-73.040;2023-06-14T06:13:17;9.65;;;5.30;;
31526;SDS011;18136;42.236;-73.040;2023-06-14T06:15:44;7.63;;;5.85;;
31526;SDS011;18136;42.236;-73.040;2023-06-14T06:18:11;9.32;;;5.38;;
31526;SDS011;18136;42.236;-73.040;2023-06-14T06:20:37;5.60;;;5.10;;
31526;SDS011;18136;42.236;-73.040;2023-06-14T06:23:03;8.15;;;4.72;;
31526;SDS011;18136;42.236;-73.040;2023-06-14T06:25:29;6.13;;;5.35;;
31526;SDS011;18136;42.236;-73.040;2023-06-14T06:27:57;7.72;;;5.05;;
31526;SDS011;18136;42.236;-73.040;2023-06-14T06:30:23;6.68;;;4.70;;
31526;SDS011;18136;42.236;-73.040;2023-06-14T06:32:50;5.70;;;4.97;;
31526;SDS011;18136;42.236;-73.040;2023-06-14T06:35:16;6.13;;;4.45;;
31526;SDS011;18136;42.236;-73.040;2023-06-14T06:37:42;6.13;;;5.47;;
31526;SDS011;18136;42.236;-73.040;2023-06-14T06:40:09;7.65;;;5.05;;
31526;SDS011;18136;42.236;-73.040;2023-06-14T06:42:35;12.25;;;5.68;;
31526;SDS011;18136;42.236;-73.040;2023-06-14T06:45:01;5.80;;;5.20;;
31526;SDS011;18136;42.236;-73.040;2023-06-14T06:47:27;6.57;;;4.90;;
31526;SDS011;18136;42.236;-73.040;2023-06-14T06:49:54;5.35;;;4.82;;
31526;SDS011;18136;42.236;-73.040;2023-06-14T06:52:20;6.13;;;4.60;;
31526;SDS011;18136;42.236;-73.040;2023-06-14T06:54:46;7.07;;;5.00;;
31526;SDS011;18136;42.236;-73.040;2023-06-14T06:57:12;5.22;;;4.50;;
31526;SDS011;18136;42.236;-73.040;2023-06-14T06:59:39;5.70;;;4.93;;
31526;SDS011;18136;42.236;-73.040;2023-06-14T07:02:05;6.05;;;5.03;;
31526;SDS011;18136;42.236;-73.040;2023-06-14T07:04:31;6.43;;;5.00;;
31526;SDS011;18136;42.236;-73.040;2023-06-14T07:06:57;8.90;;;5.32;;
31526;SDS011;18136;42.236;-73.040;2023-06-14T07:09:23;6.25;;;5.00;;
31526;SDS011;18136;42.236;-73.040;2023-06-14T07:11:50;7.22;;;5.22;;
31526;SDS011;18136;42.236;-73.040;2023-06-14T07:14:17;5.78;;;5.28;;
31526;SDS011;18136;42.236;-73.040;2023-06-14T07:16:43;7.47;;;5.13;;
31526;SDS011;18136;42.236;-73.040;2023-06-14T07:19:09;7.35;;;5.63;;
31526;SDS011;18136;42.236;-73.040;2023-06-14T07:21:36;7.22;;;5.05;;
31526;SDS011;18136;42.236;-73.040;2023-06-14T07:24:04;9.05;;;5.28;;
31526;SDS011;18136;42.236;-73.040;2023-06-14T07:26:31;8.73;;;4.97;;
31526;SDS011;18136;42.236;-73.040;2023-06-14T07:28:57;9.10;;;5.40;;
31526;SDS011;18136;42.236;-73.040;2023-06-14T07:31:24;5.90;;;5.22;;
31526;SDS011;18136;42.236;-73.040;2023-06-14T07:33:50;7.10;;;5.13;;
31526;SDS011;18136;42.236;-73.040;2023-06-14T07:36:16;5.63;;;4.80;;
31526;SDS011;18136;42.236;-73.040;2023-06-14T07:38:43;10.75;;;5.40;;
31526;SDS011;18136;42.236;-73.040;2023-06-14T07:41:09;5.82;;;5.15;;
31526;SDS011;18136;42.236;-73.040;2023-06-14T07:43:35;6.60;;;5.50;;
31526;SDS011;18136;42.236;-73.040;2023-06-14T07:46:01;4.82;;;4.43;;
31526;SDS011;18136;42.236;-73.040;2023-06-14T07:48:27;7.13;;;4.80;;
31526;SDS011;18136;42.236;-73.040;2023-06-14T07:50:54;5.80;;;4.93;;
31526;SDS011;18136;42.236;-73.040;2023-06-14T07:53:20;6.22;;;4.78;;
31526;SDS011;18136;42.236;-73.040;2023-06-14T07:55:46;5.45;;;4.95;;
31526;SDS011;18136;42.236;-73.040;2023-06-14T07:58:13;7.20;;;4.75;;
31526;SDS011;18136;42.236;-73.040;2023-06-14T08:00:40;6.63;;;5.30;;
31526;SDS011;18136;42.236;-73.040;2023-06-14T08:03:06;14.30;;;5.55;;
31526;SDS011;18136;42.236;-73.040;2023-06-14T08:05:32;6.70;;;4.53;;
31526;SDS011;18136;42.236;-73.040;2023-06-14T08:07:59;5.80;;;5.18;;
31526;SDS011;18136;42.236;-73.040;2023-06-14T08:10:26;5.05;;;4.47;;
31526;SDS011;18136;42.236;-73.040;2023-06-14T08:12:52;5.68;;;4.95;;
31526;SDS011;18136;42.236;-73.040;2023-06-14T08:15:19;6.65;;;4.82;;
31526;SDS011;18136;42.236;-73.040;2023-06-14T08:17:45;5.88;;;4.75;;
31526;SDS011;18136;42.236;-73.040;2023-06-14T08:20:12;6.18;;;5.35;;
31526;SDS011;18136;42.236;-73.040;2023-06-14T08:22:42;8.00;;;4.65;;
31526;SDS011;18136;42.236;-73.040;2023-06-14T08:25:08;6.22;;;5.57;;
31526;SDS011;18136;42.236;-73.040;2023-06-14T08:27:37;6.93;;;5.80;;
31526;SDS011;18136;42.236;-73.040;2023-06-14T08:30:03;7.72;;;5.68;;
31526;SDS011;18136;42.236;-73.040;2023-06-14T08:32:29;7.20;;;4.95;;
31526;SDS011;18136;42.236;-73.040;2023-06-14T08:34:55;6.88;;;5.28;;
31526;SDS011;18136;42.236;-73.040;2023-06-14T08:37:21;11.45;;;5.32;;
31526;SDS011;18136;42.236;-73.040;2023-06-14T08:39:47;5.85;;;5.30;;
31526;SDS011;18136;42.236;-73.040;2023-06-14T08:42:14;6.28;;;5.40;;
31526;SDS011;18136;42.236;-73.040;2023-06-14T08:44:40;9.07;;;5.43;;
31526;SDS011;18136;42.236;-73.040;2023-06-14T08:47:07;6.47;;;4.72;;
31526;SDS011;18136;42.236;-73.040;2023-06-14T08:49:35;7.38;;;5.47;;
31526;SDS011;18136;42.236;-73.040;2023-06-14T08:52:05;6.15;;;4.80;;
31526;SDS011;18136;42.236;-73.040;2023-06-14T08:54:35;9.65;;;5.47;;
31526;SDS011;18136;42.236;-73.040;2023-06-14T08:57:10;10.95;;;5.18;;
31526;SDS011;18136;42.236;-73.040;2023-06-14T08:59:42;7.22;;;4.70;;
31526;SDS011;18136;42.236;-73.040;2023-06-14T09:02:14;6.18;;;4.82;;
31526;SDS011;18136;42.236;-73.040;2023-06-14T09:04:43;5.85;;;4.68;;
31526;SDS011;18136;42.236;-73.040;2023-06-14T09:07:10;15.32;;;5.35;;
31526;SDS011;18136;42.236;-73.040;2023-06-14T09:09:40;6.60;;;5.03;;
31526;SDS011;18136;42.236;-73.040;2023-06-14T09:12:10;9.63;;;5.78;;
31526;SDS011;18136;42.236;-73.040;2023-06-14T09:14:37;6.82;;;5.00;;
31526;SDS011;18136;42.236;-73.040;2023-06-14T09:17:06;5.82;;;4.97;;
31526;SDS011;18136;42.236;-73.040;2023-06-14T09:19:32;5.55;;;4.93;;
31526;SDS011;18136;42.236;-73.040;2023-06-14T09:22:01;5.32;;;4.82;;
31526;SDS011;18136;42.236;-73.040;2023-06-14T09:24:28;5.43;;;4.88;;
31526;SDS011;18136;42.236;-73.040;2023-06-14T09:26:54;8.02;;;5.70;;
31526;SDS011;18136;42.236;-73.040;2023-06-14T09:29:20;6.43;;;4.65;;
31526;SDS011;18136;42.236;-73.040;2023-06-14T09:31:46;6.93;;;4.97;;
31526;SDS011;18136;42.236;-73.040;2023-06-14T09:34:13;5.97;;;4.85;;
31526;SDS011;18136;42.236;-73.040;2023-06-14T09:36:41;5.55;;;4.97;;
31526;SDS011;18136;42.236;-73.040;2023-06-14T09:39:07;6.40;;;5.28;;
31526;SDS011;18136;42.236;-73.040;2023-06-14T09:41:40;6.82;;;5.22;;
31526;SDS011;18136;42.236;-73.040;2023-06-14T09:44:08;8.48;;;5.78;;
31526;SDS011;18136;42.236;-73.040;2023-06-14T09:46:37;6.60;;;5.30;;
31526;SDS011;18136;42.236;-73.040;2023-06-14T09:49:04;7.43;;;5.38;;
31526;SDS011;18136;42.236;-73.040;2023-06-14T09:51:31;4.90;;;4.40;;
31526;SDS011;18136;42.236;-73.040;2023-06-14T09:54:01;7.38;;;5.25;;
31526;SDS011;18136;42.236;-73.040;2023-06-14T09:56:34;6.05;;;5.45;;
31526;SDS011;18136;42.236;-73.040;2023-06-14T09:59:04;5.70;;;5.07;;
31526;SDS011;18136;42.236;-73.040;2023-06-14T10:01:32;7.38;;;5.55;;
31526;SDS011;18136;42.236;-73.040;2023-06-14T10:04:01;6.15;;;5.35;;
31526;SDS011;18136;42.236;-73.040;2023-06-14T10:06:31;6.90;;;5.20;;
31526;SDS011;18136;42.236;-73.040;2023-06-14T10:09:02;8.65;;;5.30;;
31526;SDS011;18136;42.236;-73.040;2023-06-14T10:11:30;8.70;;;5.68;;
31526;SDS011;18136;42.236;-73.040;2023-06-14T10:13:57;11.55;;;5.70;;
31526;SDS011;18136;42.236;-73.040;2023-06-14T10:19:00;10.95;;;6.25;;
31526;SDS011;18136;42.236;-73.040;2023-06-14T10:21:49;30.08;;;6.57;;
31526;SDS011;18136;42.236;-73.040;2023-06-14T10:24:44;6.20;;;5.65;;
31526;SDS011;18136;42.236;-73.040;2023-06-14T10:27:13;10.88;;;5.65;;
31526;SDS011;18136;42.236;-73.040;2023-06-14T10:32:23;9.70;;;5.95;;
31526;SDS011;18136;42.236;-73.040;2023-06-14T10:34:53;6.13;;;5.53;;
31526;SDS011;18136;42.236;-73.040;2023-06-14T10:37:32;6.22;;;5.63;;
31526;SDS011;18136;42.236;-73.040;2023-06-14T10:39:58;6.28;;;5.68;;
31526;SDS011;18136;42.236;-73.040;2023-06-14T10:42:29;7.70;;;5.25;;
31526;SDS011;18136;42.236;-73.040;2023-06-14T10:44:57;10.25;;;6.10;;
31526;SDS011;18136;42.236;-73.040;2023-06-14T10:47:33;9.68;;;6.30;;
31526;SDS011;18136;42.236;-73.040;2023-06-14T10:50:04;18.92;;;6.40;;
31526;SDS011;18136;42.236;-73.040;2023-06-14T10:52:38;18.60;;;6.03;;
31526;SDS011;18136;42.236;-73.040;2023-06-14T10:55:10;15.10;;;5.70;;
31526;SDS011;18136;42.236;-73.040;2023-06-14T10:57:41;9.45;;;6.35;;
31526;SDS011;18136;42.236;-73.040;2023-06-14T11:00:11;11.63;;;6.25;;
31526;SDS011;18136;42.236;-73.040;2023-06-14T11:11:06;6.60;;;5.82;;
31526;SDS011;18136;42.236;-73.040;2023-06-14T11:13:33;7.43;;;6.70;;
31526;SDS011;18136;42.236;-73.040;2023-06-14T11:16:03;7.68;;;6.97;;
31526;SDS011;18136;42.236;-73.040;2023-06-14T11:18:39;15.30;;;6.85;;
31526;SDS011;18136;42.236;-73.040;2023-06-14T11:21:06;14.23;;;6.78;;
31526;SDS011;18136;42.236;-73.040;2023-06-14T11:23:34;9.50;;;6.93;;
31526;SDS011;18136;42.236;-73.040;2023-06-14T11:26:00;7.28;;;6.45;;
31526;SDS011;18136;42.236;-73.040;2023-06-14T11:28:37;6.35;;;5.75;;
31526;SDS011;18136;42.236;-73.040;2023-06-14T11:31:05;8.00;;;5.70;;
31526;SDS011;18136;42.236;-73.040;2023-06-14T11:33:31;6.80;;;5.35;;
31526;SDS011;18136;42.236;-73.040;2023-06-14T11:35:58;7.05;;;5.63;;
31526;SDS011;18136;42.236;-73.040;2023-06-14T11:38:26;7.07;;;5.85;;
31526;SDS011;18136;42.236;-73.040;2023-06-14T11:40:52;6.40;;;5.80;;
31526;SDS011;18136;42.236;-73.040;2023-06-14T11:43:18;7.47;;;6.13;;
31526;SDS011;18136;42.236;-73.040;2023-06-14T11:45:47;5.78;;;5.10;;
31526;SDS011;18136;42.236;-73.040;2023-06-14T11:48:14;6.97;;;5.80;;
31526;SDS011;18136;42.236;-73.040;2023-06-14T11:50:40;8.25;;;5.60;;
31526;SDS011;18136;42.236;-73.040;2023-06-14T11:53:06;5.40;;;4.90;;
31526;SDS011;18136;42.236;-73.040;2023-06-14T11:55:41;5.85;;;5.20;;
31526;SDS011;18136;42.236;-73.040;2023-06-14T11:58:10;6.05;;;5.55;;
31526;SDS011;18136;42.236;-73.040;2023-06-14T12:00:36;6.72;;;5.18;;
31526;SDS011;18136;42.236;-73.040;2023-06-14T12:03:03;10.13;;;6.13;;
31526;SDS011;18136;42.236;-73.040;2023-06-14T12:05:29;6.95;;;5.55;;
31526;SDS011;18136;42.236;-73.040;2023-06-14T12:07:59;5.75;;;5.25;;
31526;SDS011;18136;42.236;-73.040;2023-06-14T12:10:26;8.23;;;6.15;;
31526;SDS011;18136;42.236;-73.040;2023-06-14T12:12:56;9.18;;;5.63;;
31526;SDS011;18136;42.236;-73.040;2023-06-14T12:15:27;8.68;;;5.95;;
31526;SDS011;18136;42.236;-73.040;2023-06-14T12:17:59;7.88;;;5.22;;
31526;SDS011;18136;42.236;-73.040;2023-06-14T12:20:29;6.32;;;5.10;;
31526;SDS011;18136;42.236;-73.040;2023-06-14T12:22:56;6.13;;;5.18;;
31526;SDS011;18136;42.236;-73.040;2023-06-14T12:25:28;6.13;;;5.63;;
31526;SDS011;18136;42.236;-73.040;2023-06-14T12:28:03;6.60;;;5.30;;
31526;SDS011;18136;42.236;-73.040;2023-06-14T12:30:30;7.85;;;5.47;;
31526;SDS011;18136;42.236;-73.040;2023-06-14T12:32:57;7.25;;;6.00;;
31526;SDS011;18136;42.236;-73.040;2023-06-14T12:35:23;12.85;;;6.47;;
31526;SDS011;18136;42.236;-73.040;2023-06-14T12:37:49;6.70;;;5.25;;
31526;SDS011;18136;42.236;-73.040;2023-06-14T12:40:15;9.73;;;6.07;;
31526;SDS011;18136;42.236;-73.040;2023-06-14T12:42:41;9.77;;;5.97;;
31526;SDS011;18136;42.236;-73.040;2023-06-14T12:45:08;6.63;;;5.43;;
31526;SDS011;18136;42.236;-73.040;2023-06-14T12:47:34;11.43;;;5.55;;
31526;SDS011;18136;42.236;-73.040;2023-06-14T12:50:01;6.15;;;5.38;;
31526;SDS011;18136;42.236;-73.040;2023-06-14T12:52:27;6.50;;;5.20;;
31526;SDS011;18136;42.236;-73.040;2023-06-14T12:54:53;5.75;;;5.13;;
31526;SDS011;18136;42.236;-73.040;2023-06-14T12:57:19;5.63;;;5.03;;
31526;SDS011;18136;42.236;-73.040;2023-06-14T12:59:45;6.65;;;5.57;;
31526;SDS011;18136;42.236;-73.040;2023-06-14T13:02:16;6.60;;;5.50;;
31526;SDS011;18136;42.236;-73.040;2023-06-14T13:04:43;7.95;;;5.43;;
31526;SDS011;18136;42.236;-73.040;2023-06-14T13:07:09;6.15;;;5.35;;
31526;SDS011;18136;42.236;-73.040;2023-06-14T13:09:40;7.38;;;4.88;;
31526;SDS011;18136;42.236;-73.040;2023-06-14T13:12:06;10.02;;;5.50;;
31526;SDS011;18136;42.236;-73.040;2023-06-14T13:14:34;9.75;;;5.13;;
31526;SDS011;18136;42.236;-73.040;2023-06-14T13:17:00;6.13;;;4.53;;
31526;SDS011;18136;42.236;-73.040;2023-06-14T13:19:26;6.57;;;5.00;;
31526;SDS011;18136;42.236;-73.040;2023-06-14T13:21:52;6.72;;;5.20;;
31526;SDS011;18136;42.236;-73.040;2023-06-14T13:24:18;12.23;;;4.80;;
31526;SDS011;18136;42.236;-73.040;2023-06-14T13:26:44;8.20;;;5.28;;
31526;SDS011;18136;42.236;-73.040;2023-06-14T13:29:10;5.45;;;4.38;;
31526;SDS011;18136;42.236;-73.040;2023-06-14T13:31:36;6.43;;;4.75;;
31526;SDS011;18136;42.236;-73.040;2023-06-14T13:34:02;5.60;;;5.10;;
31526;SDS011;18136;42.236;-73.040;2023-06-14T13:36:29;5.97;;;5.30;;
31526;SDS011;18136;42.236;-73.040;2023-06-14T13:38:55;9.50;;;5.15;;
31526;SDS011;18136;42.236;-73.040;2023-06-14T13:41:25;7.00;;;4.97;;
31526;SDS011;18136;42.236;-73.040;2023-06-14T13:43:58;6.27;;;5.23;;
31526;SDS011;18136;42.236;-73.040;2023-06-14T13:46:25;6.43;;;5.57;;
31526;SDS011;18136;42.236;-73.040;2023-06-14T13:48:51;6.10;;;4.93;;
31526;SDS011;18136;42.236;-73.040;2023-06-14T13:51:18;5.75;;;5.25;;
31526;SDS011;18136;42.236;-73.040;2023-06-14T13:53:47;5.85;;;5.18;;
31526;SDS011;18136;42.236;-73.040;2023-06-14T13:56:14;5.68;;;5.18;;
31526;SDS011;18136;42.236;-73.040;2023-06-14T13:58:41;7.65;;;5.38;;
31526;SDS011;18136;42.236;-73.040;2023-06-14T14:01:07;7.18;;;5.22;;
31526;SDS011;18136;42.236;-73.040;2023-06-14T14:03:34;10.43;;;5.38;;
31526;SDS011;18136;42.236;-73.040;2023-06-14T14:06:01;9.75;;;5.40;;
31526;SDS011;18136;42.236;-73.040;2023-06-14T14:08:27;8.95;;;5.35;;
31526;SDS011;18136;42.236;-73.040;2023-06-14T14:10:53;8.55;;;5.47;;
31526;SDS011;18136;42.236;-73.040;2023-06-14T14:13:21;7.65;;;5.97;;
31526;SDS011;18136;42.236;-73.040;2023-06-14T14:15:47;6.57;;;5.75;;
31526;SDS011;18136;42.236;-73.040;2023-06-14T14:18:14;6.78;;;5.47;;
31526;SDS011;18136;42.236;-73.040;2023-06-14T14:20:42;6.13;;;5.00;;
31526;SDS011;18136;42.236;-73.040;2023-06-14T14:23:08;6.97;;;5.20;;
31526;SDS011;18136;42.236;-73.040;2023-06-14T14:25:34;5.65;;;5.05;;
31526;SDS011;18136;42.236;-73.040;2023-06-14T14:28:01;8.40;;;5.75;;
31526;SDS011;18136;42.236;-73.040;2023-06-14T14:30:27;5.63;;;4.80;;
31526;SDS011;18136;42.236;-73.040;2023-06-14T14:32:53;7.15;;;5.72;;
31526;SDS011;18136;42.236;-73.040;2023-06-14T14:35:19;9.75;;;6.15;;
31526;SDS011;18136;42.236;-73.040;2023-06-14T14:37:45;7.53;;;5.47;;
31526;SDS011;18136;42.236;-73.040;2023-06-14T14:40:11;10.23;;;5.93;;
31526;SDS011;18136;42.236;-73.040;2023-06-14T14:42:38;7.57;;;5.43;;